Turvania, Brazil
Current Conditions -  °F | °C
As of 3:00 AM on Thursday 27 Nov 2014 (Local Time) from SBGO Reporting Station
Broken Clouds Broken Clouds  
Wind Chill: 73°   Ceiling: 9000
Heat Index: 73°   Visibility: 6mi
Dew Point: 68°   Wind: 2mph
Humidity: 83%   Direction: 290°WNW
Pressure: 29.94"   Gusts: NA
Location:  16.61°S, 50.13°W
Report Text: SBGO 270500Z 29002KT 9999 FEW035 BKN090 23/20 Q1014
Loading
Personal Weather Stations






























Interactive Weather Map New forecast layout! Learn more

10-Day Weather Forecast

Advertisements
Track Severe Weather on mobile